createdAt,value
2018-08-17T00:02:27.924Z,6.23
2018-08-17T00:04:57.372Z,6.10
2018-08-17T00:07:27.367Z,5.50
2018-08-17T00:09:56.325Z,5.10
2018-08-17T00:12:25.189Z,5.63
2018-08-17T00:14:54.126Z,5.73
2018-08-17T00:17:23.573Z,5.47
2018-08-17T00:19:52.713Z,5.90
2018-08-17T00:22:22.548Z,6.07
2018-08-17T00:24:51.981Z,6.10
2018-08-17T00:27:26.076Z,5.70
2018-08-17T00:30:00.033Z,5.97
2018-08-17T00:32:29.817Z,4.80
2018-08-17T00:35:02.957Z,5.77
2018-08-17T00:37:36.048Z,5.13
2018-08-17T00:40:06.892Z,5.23
2018-08-17T00:42:36.194Z,5.97
2018-08-17T00:45:06.485Z,5.40
2018-08-17T00:47:38.060Z,5.50
2018-08-17T00:50:07.657Z,5.60
2018-08-17T00:52:37.754Z,4.93
2018-08-17T00:55:32.009Z,5.40
2018-08-17T00:58:40.894Z,5.10
2018-08-17T01:01:10.096Z,6.13
2018-08-17T01:03:39.547Z,4.93
2018-08-17T01:06:08.806Z,5.47
2018-08-17T01:08:39.269Z,5.50
2018-08-17T01:11:08.473Z,5.07
2018-08-17T01:13:37.738Z,4.73
2018-08-17T01:16:15.470Z,4.90
2018-08-17T01:18:52.918Z,5.17
2018-08-17T01:21:31.377Z,4.73
2018-08-17T01:27:05.189Z,5.27
2018-08-17T01:29:55.031Z,4.80
2018-08-17T01:32:25.569Z,5.33
2018-08-17T01:35:07.310Z,4.93
2018-08-17T01:37:42.111Z,5.17
2018-08-17T01:42:57.754Z,4.40
2018-08-17T01:45:32.699Z,5.57
2018-08-17T01:48:01.832Z,4.87
2018-08-17T01:50:31.267Z,5.00
2018-08-17T01:53:00.477Z,4.50
2018-08-17T01:55:29.120Z,5.00
2018-08-17T01:57:58.112Z,5.00
2018-08-17T02:00:26.932Z,4.60
2018-08-17T02:02:55.779Z,5.03
2018-08-17T02:05:24.486Z,5.00
2018-08-17T02:07:53.181Z,5.30
2018-08-17T02:10:22.303Z,5.07
2018-08-17T02:12:51.911Z,4.30
2018-08-17T02:15:20.682Z,4.80
2018-08-17T02:17:49.429Z,5.60
2018-08-17T02:20:18.526Z,5.60
2018-08-17T02:22:47.299Z,5.77
2018-08-17T02:25:16.439Z,5.03
2018-08-17T02:27:45.216Z,5.50
2018-08-17T02:30:14.541Z,4.77
2018-08-17T02:32:43.188Z,5.00
2018-08-17T02:35:12.269Z,5.37
2018-08-17T02:37:42.527Z,5.17
2018-08-17T02:40:11.424Z,5.27
2018-08-17T02:42:40.305Z,4.80
2018-08-17T02:45:09.271Z,5.07
2018-08-17T02:47:38.313Z,5.10
2018-08-17T02:50:07.289Z,4.60
2018-08-17T02:52:36.115Z,5.50
2018-08-17T02:55:04.977Z,5.30
2018-08-17T02:57:33.749Z,5.43
2018-08-17T03:00:02.439Z,5.33
2018-08-17T03:02:31.202Z,5.50
2018-08-17T03:05:00.066Z,5.60
2018-08-17T03:07:29.029Z,5.80
2018-08-17T03:09:57.899Z,5.87
2018-08-17T03:12:26.997Z,5.67
2018-08-17T03:14:56.195Z,5.73
2018-08-17T03:17:25.161Z,6.60
2018-08-17T03:19:54.509Z,6.00
2018-08-17T03:22:23.354Z,5.90
2018-08-17T03:24:52.207Z,5.60
2018-08-17T03:27:21.051Z,5.30
2018-08-17T03:29:50.786Z,5.37
2018-08-17T03:32:19.736Z,5.60
2018-08-17T03:34:48.743Z,5.67
2018-08-17T03:37:17.811Z,5.67
2018-08-17T03:39:46.864Z,5.47
2018-08-17T03:42:15.865Z,5.63
2018-08-17T03:44:44.739Z,5.27
2018-08-17T03:47:13.561Z,5.37
2018-08-17T03:49:42.118Z,5.33
2018-08-17T03:52:10.781Z,5.47
2018-08-17T03:54:40.151Z,5.73
2018-08-17T03:57:08.770Z,5.50
2018-08-17T03:59:37.736Z,5.63
2018-08-17T04:02:07.023Z,6.33
2018-08-17T04:04:35.854Z,5.73
2018-08-17T04:07:05.768Z,5.83
2018-08-17T04:09:34.993Z,6.10
2018-08-17T04:12:03.836Z,5.77
2018-08-17T04:14:32.668Z,5.37
2018-08-17T04:17:02.020Z,5.30
2018-08-17T04:19:30.868Z,5.70
2018-08-17T04:21:59.962Z,5.60
2018-08-17T04:24:28.823Z,5.17
2018-08-17T04:26:57.596Z,5.80
2018-08-17T04:29:26.827Z,5.80
2018-08-17T04:31:55.734Z,6.10
2018-08-17T04:34:24.873Z,5.40
2018-08-17T04:36:53.792Z,6.03
2018-08-17T04:39:22.486Z,5.70
2018-08-17T04:41:51.137Z,6.03
2018-08-17T04:44:19.706Z,5.63
2018-08-17T04:46:48.617Z,5.70
2018-08-17T04:49:17.309Z,6.60
2018-08-17T04:51:45.846Z,5.40
2018-08-17T04:54:14.717Z,6.60
2018-08-17T04:56:43.593Z,5.67
2018-08-17T04:59:12.608Z,6.10
2018-08-17T05:01:41.418Z,5.57
2018-08-17T05:04:10.388Z,6.20
2018-08-17T05:06:45.670Z,6.00
2018-08-17T05:09:14.567Z,6.10
2018-08-17T05:11:43.420Z,6.00
2018-08-17T05:14:12.484Z,6.40
2018-08-17T05:16:41.882Z,6.57
2018-08-17T05:19:12.287Z,5.87
2018-08-17T05:21:41.877Z,5.73
2018-08-17T05:24:11.018Z,6.00
2018-08-17T05:26:40.273Z,5.80
2018-08-17T05:29:09.319Z,6.40
2018-08-17T05:31:39.413Z,5.77
2018-08-17T05:34:08.068Z,6.27
2018-08-17T05:36:36.898Z,6.60
2018-08-17T05:39:06.981Z,6.03
2018-08-17T05:41:35.770Z,5.97
2018-08-17T05:44:04.697Z,6.83
2018-08-17T05:46:33.590Z,6.87
2018-08-17T05:49:02.997Z,6.47
2018-08-17T05:51:32.199Z,6.53
2018-08-17T05:54:05.910Z,6.27
2018-08-17T05:56:35.532Z,6.77
2018-08-17T05:59:05.783Z,7.10
2018-08-17T06:01:34.729Z,6.53
2018-08-17T06:04:03.717Z,6.87
2018-08-17T06:06:32.681Z,7.57
2018-08-17T06:09:01.520Z,7.00
2018-08-17T06:11:30.403Z,6.70
2018-08-17T06:13:59.321Z,7.93
2018-08-17T06:16:28.270Z,8.30
2018-08-17T06:18:57.338Z,9.10
2018-08-17T06:21:26.407Z,8.03
2018-08-17T06:23:55.490Z,8.60
2018-08-17T06:26:24.469Z,9.10
2018-08-17T06:28:53.422Z,7.70
2018-08-17T06:31:22.222Z,7.43
2018-08-17T06:33:51.506Z,7.43
2018-08-17T06:36:20.464Z,6.70
2018-08-17T06:38:49.364Z,7.70
2018-08-17T06:41:18.508Z,6.80
2018-08-17T06:43:47.212Z,7.20
2018-08-17T06:46:17.098Z,7.53
2018-08-17T06:48:46.260Z,6.53
2018-08-17T06:51:16.412Z,6.03
2018-08-17T06:53:45.266Z,6.63
2018-08-17T06:56:14.103Z,5.37
2018-08-17T06:58:43.205Z,4.87
2018-08-17T07:01:12.260Z,4.80
2018-08-17T07:03:41.090Z,5.40
2018-08-17T07:06:09.676Z,5.10
2018-08-17T07:08:38.851Z,5.10
2018-08-17T07:11:07.762Z,4.60
2018-08-17T07:13:36.811Z,4.97
2018-08-17T07:16:09.580Z,5.13
2018-08-17T07:18:38.814Z,4.43
2018-08-17T07:21:09.029Z,4.97
2018-08-17T07:23:37.920Z,4.93
2018-08-17T07:26:10.082Z,4.70
2018-08-17T07:28:38.978Z,4.93
2018-08-17T07:31:08.005Z,4.83
2018-08-17T07:33:37.006Z,5.30
2018-08-17T07:36:05.782Z,5.07
2018-08-17T07:38:34.852Z,5.00
2018-08-17T07:41:04.147Z,5.57
2018-08-17T07:43:36.706Z,4.97
2018-08-17T07:46:10.969Z,5.23
2018-08-17T07:48:41.389Z,5.23
2018-08-17T07:51:10.973Z,5.00
2018-08-17T07:53:40.114Z,7.40
2018-08-17T07:56:09.974Z,5.53
2018-08-17T07:58:39.052Z,5.50
2018-08-17T08:01:08.634Z,4.80
2018-08-17T08:03:38.095Z,5.23
2018-08-17T08:06:11.299Z,5.00
2018-08-17T08:08:52.993Z,5.20
2018-08-17T08:11:22.771Z,5.27
2018-08-17T08:13:52.164Z,5.50
2018-08-17T08:19:14.097Z,4.70
2018-08-17T08:21:46.733Z,5.37
2018-08-17T08:24:16.060Z,5.70
2018-08-17T08:26:45.515Z,5.50
2018-08-17T08:29:18.216Z,5.43
2018-08-17T08:31:47.149Z,5.70
2018-08-17T08:34:16.302Z,5.30
2018-08-17T08:36:45.468Z,5.90
2018-08-17T08:39:14.968Z,5.60
2018-08-17T08:41:44.172Z,5.70
2018-08-17T08:44:13.281Z,6.10
2018-08-17T08:46:42.533Z,5.83
2018-08-17T08:49:13.235Z,5.37
2018-08-17T08:51:47.098Z,6.23
2018-08-17T08:54:17.707Z,4.73
2018-08-17T08:56:46.358Z,5.60
2018-08-17T08:59:15.219Z,5.27
2018-08-17T09:01:43.876Z,5.10
2018-08-17T09:04:13.221Z,5.70
2018-08-17T09:06:42.455Z,5.87
2018-08-17T09:09:11.763Z,5.13
2018-08-17T09:11:40.437Z,5.50
2018-08-17T09:14:09.400Z,5.20
2018-08-17T09:16:38.225Z,5.23
2018-08-17T11:08:46.172Z,6.87
2018-08-17T11:11:15.852Z,7.00
2018-08-17T11:13:44.525Z,6.47
2018-08-17T11:16:16.396Z,6.93
2018-08-17T11:18:45.566Z,6.80
2018-08-17T11:21:14.614Z,6.40
2018-08-17T11:23:43.587Z,5.63
2018-08-17T11:26:12.794Z,6.60
2018-08-17T11:28:42.007Z,5.90
2018-08-17T11:31:11.148Z,5.57
2018-08-17T11:33:40.061Z,5.20
2018-08-17T11:36:08.788Z,5.80
2018-08-17T11:38:37.520Z,5.70
2018-08-17T11:41:10.002Z,5.62
2018-08-17T11:43:39.477Z,5.33
2018-08-17T11:46:09.160Z,6.05
2018-08-17T11:48:38.395Z,5.90
2018-08-17T11:51:07.233Z,6.30
2018-08-17T11:53:35.927Z,5.83
2018-08-17T11:56:04.592Z,5.30
2018-08-17T11:58:33.162Z,5.45
2018-08-17T12:01:05.114Z,5.63
2018-08-17T12:03:34.125Z,5.40
2018-08-17T12:06:02.752Z,5.47
2018-08-17T12:08:31.479Z,5.77
2018-08-17T12:11:07.183Z,5.77
2018-08-17T12:13:39.953Z,5.00
2018-08-17T12:16:11.745Z,5.43
2018-08-17T12:18:40.565Z,5.17
2018-08-17T12:21:09.360Z,5.87
2018-08-17T12:23:38.168Z,6.23
2018-08-17T12:26:07.332Z,5.70
2018-08-17T12:28:36.319Z,5.70
2018-08-17T12:31:05.072Z,4.90
2018-08-17T12:33:33.709Z,5.62
2018-08-17T12:36:02.513Z,5.67
2018-08-17T12:38:31.232Z,5.60
2018-08-17T12:41:01.246Z,5.87
2018-08-17T12:43:34.424Z,5.58
2018-08-17T12:46:03.119Z,5.70
2018-08-17T12:48:31.899Z,5.90
2018-08-17T12:51:04.292Z,5.70
2018-08-17T12:53:33.169Z,5.80
2018-08-17T12:56:02.127Z,5.07
2018-08-17T12:58:31.220Z,5.10
2018-08-17T13:00:59.967Z,5.33
2018-08-17T13:03:28.945Z,5.37
2018-08-17T13:05:57.801Z,4.70
2018-08-17T13:08:26.503Z,5.17
2018-08-17T13:10:58.823Z,5.50
2018-08-17T13:13:27.581Z,5.80
2018-08-17T13:16:01.802Z,5.30
2018-08-17T13:18:33.244Z,4.90
2018-08-17T13:21:02.167Z,4.80
2018-08-17T13:23:31.305Z,6.40
2018-08-17T13:26:00.104Z,5.15
2018-08-17T13:28:28.774Z,5.17
2018-08-17T13:30:57.602Z,5.50
2018-08-17T13:33:26.657Z,5.63
2018-08-17T13:35:55.273Z,5.45
2018-08-17T13:38:24.067Z,5.40
2018-08-17T13:40:52.761Z,5.73
2018-08-17T13:43:21.442Z,5.33
2018-08-17T13:45:50.021Z,4.90
2018-08-17T13:48:18.971Z,5.60
2018-08-17T13:50:47.744Z,5.00
2018-08-17T13:53:16.696Z,5.50
2018-08-17T13:55:45.719Z,4.80
2018-08-17T13:58:15.312Z,5.10
2018-08-17T14:00:44.388Z,5.33
2018-08-17T14:03:13.191Z,5.53
2018-08-17T14:05:45.885Z,5.17
2018-08-17T14:08:15.076Z,5.53
2018-08-17T14:10:43.754Z,5.10
2018-08-17T14:13:12.440Z,5.40
2018-08-17T14:15:41.164Z,5.30
2018-08-17T14:18:10.719Z,5.43
2018-08-17T14:20:39.752Z,5.73
2018-08-17T14:23:08.324Z,6.60
2018-08-17T14:25:37.279Z,5.47
2018-08-17T14:28:06.240Z,6.13
2018-08-17T14:30:34.976Z,5.07
2018-08-17T14:33:03.864Z,4.60
2018-08-17T14:35:33.781Z,5.07
2018-08-17T14:38:02.789Z,4.90
2018-08-17T14:40:31.728Z,4.67
2018-08-17T14:43:00.775Z,4.10
2018-08-17T14:45:29.573Z,4.43
2018-08-17T14:47:58.783Z,4.67
2018-08-17T14:50:30.834Z,4.67
2018-08-17T14:52:59.787Z,4.47
2018-08-17T14:55:28.689Z,4.63
2018-08-17T14:57:57.586Z,5.00
2018-08-17T15:00:26.487Z,4.80
2018-08-17T15:02:55.665Z,5.00
2018-08-17T15:05:24.496Z,4.43
2018-08-17T15:07:53.473Z,5.57
2018-08-17T15:10:22.346Z,5.17
2018-08-17T15:12:53.796Z,5.28
2018-08-17T15:15:22.728Z,4.97
2018-08-17T15:17:51.762Z,5.20
2018-08-17T15:20:20.949Z,4.90
2018-08-17T15:22:49.667Z,4.70
2018-08-17T15:25:18.755Z,5.80
2018-08-17T15:27:47.655Z,5.63
2018-08-17T15:30:16.480Z,5.20
2018-08-17T15:32:45.505Z,5.30
2018-08-17T15:35:16.521Z,4.90
2018-08-17T15:37:45.576Z,5.63
2018-08-17T15:40:14.605Z,5.40
2018-08-17T15:42:43.508Z,6.07
2018-08-17T15:45:12.435Z,5.40
2018-08-17T15:47:45.293Z,5.23
2018-08-17T15:50:18.478Z,5.10
2018-08-17T15:52:48.470Z,5.97
2018-08-17T15:55:17.958Z,5.83
2018-08-17T15:57:47.542Z,5.70
2018-08-17T16:00:18.842Z,5.47
2018-08-17T16:02:50.969Z,5.50
2018-08-17T16:05:21.084Z,5.10
2018-08-17T16:07:52.293Z,6.17
2018-08-17T16:10:22.927Z,5.70
2018-08-17T16:16:17.334Z,5.27
2018-08-17T16:18:47.636Z,5.30
2018-08-17T16:21:20.326Z,5.35
2018-08-17T16:23:49.520Z,5.60
2018-08-17T16:26:18.572Z,5.50
2018-08-17T16:28:47.569Z,5.20
2018-08-17T16:31:17.075Z,5.62
2018-08-17T16:33:46.186Z,5.40
2018-08-17T16:36:15.441Z,5.90
2018-08-17T16:38:44.771Z,5.97
2018-08-17T16:41:14.026Z,4.80
2018-08-17T16:43:46.299Z,4.80
2018-08-17T16:46:15.678Z,5.10
2018-08-17T16:48:45.186Z,5.40
2018-08-17T16:51:14.319Z,5.37
2018-08-17T16:53:43.470Z,5.60
2018-08-17T16:56:12.887Z,5.47
2018-08-17T16:58:41.838Z,5.90
2018-08-17T17:01:11.623Z,5.00
2018-08-17T17:03:40.857Z,4.92
2018-08-17T17:06:15.639Z,6.03
2018-08-17T17:14:07.064Z,5.40
2018-08-17T17:16:55.764Z,5.15
2018-08-17T17:19:26.473Z,4.90
2018-08-17T17:21:55.361Z,6.08
2018-08-17T17:24:30.277Z,5.07
2018-08-17T17:27:08.338Z,4.93
2018-08-17T17:29:42.483Z,5.63
2018-08-17T17:32:12.030Z,5.70
2018-08-17T17:34:40.983Z,5.83
2018-08-17T17:37:10.156Z,5.90
2018-08-17T17:39:39.173Z,6.10
2018-08-17T17:42:11.736Z,5.58
2018-08-17T17:44:42.201Z,5.90
2018-08-17T17:47:12.592Z,6.70
2018-08-17T17:49:43.058Z,6.57
2018-08-17T17:52:13.583Z,6.70
2018-08-17T17:54:42.857Z,6.73
2018-08-17T17:57:12.068Z,8.50
2018-08-17T17:59:48.165Z,8.17
2018-08-17T18:02:28.778Z,9.20
2018-08-17T18:04:58.427Z,11.10
2018-08-17T18:07:34.036Z,11.70
2018-08-17T18:10:06.791Z,10.63
2018-08-17T18:12:36.112Z,11.27
2018-08-17T18:15:05.325Z,10.30
2018-08-17T18:17:34.171Z,10.37
2018-08-17T18:20:03.439Z,11.40
2018-08-17T18:22:32.852Z,10.30
2018-08-17T18:25:05.786Z,10.80
2018-08-17T18:27:35.739Z,11.73
2018-08-17T18:30:05.391Z,11.23
2018-08-17T18:32:40.543Z,11.67
2018-08-17T18:35:10.251Z,11.40
2018-08-17T18:37:39.817Z,11.50
2018-08-17T18:40:11.215Z,11.43
2018-08-17T18:42:42.470Z,10.90
2018-08-17T18:45:12.067Z,10.68
2018-08-17T18:47:41.198Z,10.43
2018-08-17T18:50:10.261Z,9.13
2018-08-17T18:52:39.461Z,9.35
2018-08-17T18:55:08.683Z,8.73
2018-08-17T18:57:37.962Z,8.43
2018-08-17T19:00:09.359Z,7.63
2018-08-17T19:02:38.385Z,8.75
2018-08-17T19:05:08.007Z,7.60
2018-08-17T19:07:37.077Z,7.75
2018-08-17T19:10:06.830Z,7.43
2018-08-17T19:12:36.327Z,8.00
2018-08-17T19:15:10.184Z,7.80
2018-08-17T19:17:38.833Z,7.67
2018-08-17T19:20:10.985Z,8.20
2018-08-17T19:24:19.442Z,7.60
2018-08-17T19:26:48.280Z,7.57
2018-08-17T19:29:17.430Z,7.60
2018-08-17T19:32:07.222Z,6.60
2018-08-17T19:34:36.711Z,7.13
2018-08-17T19:37:06.101Z,6.03
2018-08-17T19:39:35.112Z,6.23
2018-08-17T19:42:04.479Z,5.83
2018-08-17T19:44:33.720Z,6.00
2018-08-17T19:47:02.831Z,6.00
2018-08-17T19:49:31.724Z,5.90
2018-08-17T19:52:00.783Z,6.07
2018-08-17T19:54:29.862Z,6.03
2018-08-17T19:56:59.551Z,6.07
2018-08-17T19:59:33.394Z,5.77
2018-08-17T20:02:02.283Z,5.90
2018-08-17T20:04:31.503Z,5.83
2018-08-17T20:07:00.550Z,6.30
2018-08-17T20:09:29.453Z,5.07
2018-08-17T20:11:58.390Z,5.57
2018-08-17T20:14:27.372Z,4.87
2018-08-17T20:16:58.182Z,5.10
2018-08-17T20:19:35.129Z,5.13
2018-08-17T20:22:05.516Z,5.97
2018-08-17T20:24:37.023Z,6.70
2018-08-17T20:27:07.431Z,6.13
2018-08-17T20:29:37.734Z,7.47
2018-08-17T20:32:07.283Z,7.00
2018-08-17T20:34:42.472Z,6.83
2018-08-17T20:37:12.236Z,7.03
2018-08-17T20:39:42.401Z,7.10
2018-08-17T20:42:11.930Z,7.77
2018-08-17T20:44:42.285Z,8.20
2018-08-17T20:47:15.776Z,7.40
2018-08-17T20:49:45.341Z,8.17
2018-08-17T20:52:16.984Z,7.67
2018-08-17T20:54:47.023Z,7.03
2018-08-17T20:57:15.884Z,7.00
2018-08-17T20:59:44.947Z,7.77
2018-08-17T21:02:14.034Z,7.47
2018-08-17T21:04:47.053Z,7.70
2018-08-17T21:07:16.403Z,7.40
2018-08-17T21:09:48.182Z,7.03
2018-08-17T21:12:17.656Z,7.50
2018-08-17T21:14:47.476Z,7.10
2018-08-17T21:17:16.762Z,7.33
2018-08-17T21:19:46.292Z,6.60
2018-08-17T21:22:15.667Z,5.97
2018-08-17T21:24:44.749Z,6.57
2018-08-17T21:27:14.094Z,5.90
2018-08-17T21:29:45.199Z,5.70
2018-08-17T21:32:14.488Z,5.60
2018-08-17T21:34:45.286Z,5.73
2018-08-17T21:37:14.239Z,5.90
2018-08-17T21:39:44.221Z,5.60
2018-08-17T21:42:14.358Z,5.40
2018-08-17T21:44:53.580Z,5.87
2018-08-17T21:50:02.592Z,5.70
2018-08-17T21:52:31.449Z,5.60
2018-08-17T21:55:00.483Z,6.57
2018-08-17T21:57:29.377Z,5.73
2018-08-17T21:59:58.483Z,6.03
2018-08-17T22:02:27.402Z,6.20
2018-08-17T22:04:58.879Z,8.27
2018-08-17T22:07:28.601Z,6.67
2018-08-17T22:09:57.664Z,5.63
2018-08-17T22:12:26.978Z,5.70
2018-08-17T22:14:56.126Z,5.97
2018-08-17T22:17:34.520Z,6.50
2018-08-17T22:20:04.866Z,7.70
2018-08-17T22:22:34.911Z,6.67
2018-08-17T22:25:05.383Z,6.87
2018-08-17T22:27:34.886Z,7.30
2018-08-17T22:30:05.735Z,8.50
2018-08-17T22:32:36.294Z,6.80
2018-08-17T22:35:05.675Z,6.87
2018-08-17T22:37:35.104Z,6.90
2018-08-17T22:40:21.806Z,6.43
2018-08-17T22:42:51.279Z,6.83
2018-08-17T22:45:20.513Z,5.90
2018-08-17T22:47:49.128Z,6.00
2018-08-17T22:50:18.052Z,6.33
2018-08-17T22:52:48.177Z,6.67
2018-08-17T22:55:16.926Z,7.03
2018-08-17T22:57:45.940Z,7.13
2018-08-17T23:00:24.921Z,6.77
2018-08-17T23:02:59.014Z,6.87
2018-08-17T23:05:32.426Z,6.17
2018-08-17T23:08:02.092Z,6.37
2018-08-17T23:10:33.405Z,7.80
2018-08-17T23:13:03.431Z,7.13
2018-08-17T23:15:36.888Z,6.40
2018-08-17T23:18:11.492Z,7.63
2018-08-17T23:20:41.816Z,7.87
2018-08-17T23:23:15.515Z,7.63
2018-08-17T23:25:45.841Z,8.13
2018-08-17T23:28:15.591Z,7.87
2018-08-17T23:30:45.167Z,9.00
2018-08-17T23:33:17.785Z,9.90
2018-08-17T23:35:48.626Z,9.07
2018-08-17T23:38:19.017Z,9.30
2018-08-17T23:40:49.033Z,9.73
2018-08-17T23:43:18.335Z,10.90
2018-08-17T23:45:47.417Z,9.50
2018-08-17T23:48:16.378Z,10.10
2018-08-17T23:50:45.504Z,11.47
2018-08-17T23:53:14.662Z,10.80
2018-08-17T23:55:45.481Z,11.80
2018-08-17T23:58:23.214Z,11.70
